Time;durP1;ratioP1;P1;durP2;ratioP2;P2;SDS_P1;SDS_P2;PMS_P1;PMS_P2;Temp;Humidity;BMP_temperature;BMP_pressure;BME280_temperature;BME280_humidity;BME280_pressure;Samples;Min_cycle;Max_cycle;Signal;HPM_P1;HPM_P2
2022/01/18 00:00:18;;;;;;;20.60;3.90;;;;;;;3.80;90.57;103166.72;5113408;28;20626;-41
2022/01/18 00:02:44;;;;;;;19.05;3.33;;;;;;;3.78;91.06;103156.94;5113547;28;20146;-43
2022/01/18 00:05:13;;;;;;;19.15;3.08;;;;;;;3.80;90.77;103163.19;5113037;28;20184;-46
2022/01/18 00:07:43;;;;;;;18.92;2.92;;;;;;;3.84;90.53;103163.31;5112617;27;20173;-42
2022/01/18 00:10:09;;;;;;;17.05;3.85;;;;;;;3.86;90.22;103166.00;5113136;28;20169;-44
2022/01/18 00:23:18;;;;;;;22.55;3.55;;;;;;;3.83;91.62;103187.16;5113155;27;20557;-41
2022/01/18 00:25:47;;;;;;;18.38;3.50;;;;;;;3.83;91.89;103176.53;5112298;28;20208;-42
2022/01/18 00:28:14;;;;;;;22.88;3.85;;;;;;;3.84;92.29;103183.63;5111228;28;20648;-44
2022/01/18 00:31:09;;;;;;;18.98;3.22;;;;;;;3.81;92.45;103172.94;5110985;28;20185;-41
2022/01/18 00:33:41;;;;;;;16.85;3.75;;;;;;;3.83;92.69;103166.81;5112182;28;20185;-45
2022/01/18 00:36:10;;;;;;;19.60;2.88;;;;;;;3.83;92.99;103163.28;5112120;28;20223;-42
2022/01/18 00:38:47;;;;;;;15.18;2.50;;;;;;;3.85;93.31;103169.53;5112563;28;20174;-41
2022/01/18 00:41:15;;;;;;;13.55;2.83;;;;;;;3.84;93.43;103168.59;5111353;28;20196;-42
2022/01/18 00:43:42;;;;;;;17.52;3.28;;;;;;;3.83;93.54;103173.88;5112544;28;20166;-41
2022/01/18 00:46:08;;;;;;;14.15;2.97;;;;;;;3.83;93.91;103172.13;5112059;28;20185;-44
2022/01/18 00:48:35;;;;;;;18.33;3.17;;;;;;;3.86;93.86;103179.25;5111594;28;20223;-43
2022/01/18 00:51:03;;;;;;;14.93;2.90;;;;;;;3.84;94.15;103188.94;5112258;28;20230;-43
2022/01/18 00:53:31;;;;;;;17.90;3.45;;;;;;;3.88;94.23;103180.22;5112258;28;20700;-40
2022/01/18 00:58:32;;;;;;;19.52;3.17;;;;;;;3.97;93.97;103191.06;5112066;28;20185;-48
2022/01/18 01:00:57;;;;;;;13.02;2.50;;;;;;;3.93;93.79;103202.44;5112306;28;20352;-42
2022/01/18 01:03:23;;;;;;;13.48;2.67;;;;;;;3.94;94.07;103196.28;5110380;28;20166;-47
2022/01/18 01:05:50;;;;;;;20.50;2.92;;;;;;;3.90;94.20;103195.31;5111514;28;20284;-43
2022/01/18 01:08:15;;;;;;;18.75;2.95;;;;;;;3.91;94.25;103182.94;5112251;28;20195;-42
2022/01/18 01:10:41;;;;;;;18.73;2.95;;;;;;;3.96;93.80;103197.22;5111592;28;20177;-42
2022/01/18 01:13:07;;;;;;;10.73;2.40;;;;;;;4.01;94.29;103194.69;5110484;28;20165;-43
2022/01/18 01:15:39;;;;;;;12.55;2.80;;;;;;;3.97;94.16;103201.66;5111320;28;20293;-44
2022/01/18 01:44:56;;;;;;;18.40;2.72;;;;;;;4.04;94.84;103230.16;5111627;28;20169;-41
2022/01/18 01:47:32;;;;;;;15.25;2.70;;;;;;;4.05;95.00;103237.25;5110677;28;20189;-40
2022/01/18 01:49:58;;;;;;;13.63;3.22;;;;;;;4.09;94.80;103241.81;5111280;28;20179;-45
2022/01/18 01:52:23;;;;;;;15.38;2.38;;;;;;;4.06;94.86;103249.66;5110730;28;20273;-42
2022/01/18 01:54:49;;;;;;;14.55;2.60;;;;;;;4.09;94.80;103252.41;5111192;28;20204;-42
2022/01/18 01:57:15;;;;;;;10.68;2.38;;;;;;;4.11;94.99;103258.66;5110293;28;20688;-44
2022/01/18 01:59:41;;;;;;;14.55;2.30;;;;;;;4.12;94.94;103249.84;5111237;28;20170;-45
2022/01/18 02:02:07;;;;;;;13.13;3.05;;;;;;;4.10;94.66;103243.59;5109539;28;20188;-45
2022/01/18 02:04:32;;;;;;;17.70;3.08;;;;;;;4.05;95.24;103234.63;5111146;28;20244;-48
2022/01/18 02:06:58;;;;;;;12.07;2.67;;;;;;;4.11;95.79;103247.13;5110905;28;20430;-41
2022/01/18 02:09:23;;;;;;;13.25;2.67;;;;;;;4.16;95.49;103231.38;5110804;28;20169;-42
2022/01/18 02:11:50;;;;;;;11.98;2.72;;;;;;;4.16;95.40;103228.72;5110638;28;20235;-45
2022/01/18 02:14:20;;;;;;;10.70;2.40;;;;;;;4.13;96.05;103233.06;5110118;28;20173;-43
2022/01/18 02:22:14;;;;;;;16.42;2.83;;;;;;;4.19;96.31;103248.25;5110562;28;20157;-43
2022/01/18 02:24:40;;;;;;;17.77;2.85;;;;;;;4.17;96.19;103242.00;5110597;28;20161;-43
2022/01/18 02:27:05;;;;;;;15.75;3.03;;;;;;;4.21;96.46;103237.69;5109563;28;20185;-46
2022/01/18 02:29:31;;;;;;;17.38;3.22;;;;;;;4.27;96.57;103240.50;5110270;28;20244;-43
2022/01/18 02:31:57;;;;;;;13.88;2.53;;;;;;;4.22;96.33;103235.09;5109791;28;20200;-43
2022/01/18 02:34:24;;;;;;;17.75;2.20;;;;;;;4.24;96.43;103232.44;5110041;28;20687;-40
2022/01/18 02:36:50;;;;;;;13.35;2.30;;;;;;;4.20;96.70;103235.88;5108189;28;20235;-43
2022/01/18 02:39:22;;;;;;;10.15;2.08;;;;;;;4.16;96.94;103234.91;5110287;28;20255;-47
2022/01/18 02:41:52;;;;;;;10.00;2.08;;;;;;;4.17;97.25;103231.38;5110169;28;20165;-43
2022/01/18 02:44:17;;;;;;;18.77;2.45;;;;;;;4.16;97.60;103239.31;5094325;28;20669;-43
2022/01/18 02:46:43;;;;;;;13.30;2.15;;;;;;;4.15;97.64;103248.13;5109283;28;20209;-43
2022/01/18 02:49:09;;;;;;;13.20;2.40;;;;;;;4.17;98.02;103243.75;5109617;28;20637;-47
2022/01/18 02:51:35;;;;;;;13.10;2.20;;;;;;;4.13;98.15;103238.38;5108611;28;20653;-42
2022/01/18 02:54:05;;;;;;;18.27;2.22;;;;;;;4.12;98.51;103239.22;5112796;28;20195;-43
2022/01/18 02:56:35;;;;;;;13.20;2.20;;;;;;;4.09;98.85;103239.16;5113455;28;20240;-44
2022/01/18 02:59:12;;;;;;;16.50;2.35;;;;;;;4.11;99.30;103248.06;5113954;28;20178;-42
2022/01/18 03:04:21;;;;;;;11.30;2.05;;;;;;;4.09;99.63;103255.06;5113508;28;20177;-43
2022/01/18 03:06:46;;;;;;;11.75;2.08;;;;;;;4.11;99.65;103250.69;5113206;28;20189;-39
2022/01/18 03:09:12;;;;;;;9.38;2.03;;;;;;;4.11;100.00;103253.34;5113675;28;20201;-40
2022/01/18 03:11:37;;;;;;;9.00;1.60;;;;;;;4.14;100.00;103252.53;5095800;28;20198;-41
2022/01/18 03:14:03;;;;;;;13.57;2.53;;;;;;;4.15;100.00;103245.47;5093019;28;20166;-42
2022/01/18 03:16:29;;;;;;;18.77;2.22;;;;;;;4.15;100.00;103240.16;5092340;28;20201;-40
2022/01/18 03:18:54;;;;;;;10.63;2.13;;;;;;;4.18;100.00;103243.81;5092661;28;20388;-40
2022/01/18 03:21:20;;;;;;;14.90;2.10;;;;;;;4.21;100.00;103246.53;5092812;28;20162;-43
2022/01/18 03:23:51;;;;;;;11.20;1.98;;;;;;;4.18;100.00;103251.78;5093006;28;20271;-40
2022/01/18 03:26:18;;;;;;;9.38;1.80;;;;;;;4.25;100.00;103256.38;5092551;28;20185;-41
2022/01/18 03:28:44;;;;;;;14.23;1.83;;;;;;;4.25;100.00;103252.84;5092572;28;20252;-47
2022/01/18 03:31:10;;;;;;;10.88;2.33;;;;;;;4.24;100.00;103248.38;5092809;28;20905;-42
2022/01/18 03:33:35;;;;;;;10.07;2.25;;;;;;;4.22;100.00;103250.06;5091479;28;20249;-42
2022/01/18 03:36:02;;;;;;;10.95;1.92;;;;;;;4.24;100.00;103259.91;5092854;28;20189;-42
2022/01/18 03:38:31;;;;;;;15.55;3.33;;;;;;;4.21;100.00;103250.94;5092683;28;20596;-45
2022/01/18 03:41:01;;;;;;;9.00;1.73;;;;;;;4.22;100.00;103248.34;5093231;28;20268;-43
2022/01/18 03:43:28;;;;;;;7.47;1.85;;;;;;;4.21;100.00;103266.88;5092866;28;20161;-43
2022/01/18 03:46:00;;;;;;;15.32;2.40;;;;;;;4.21;100.00;103264.22;5092423;28;20243;-42
2022/01/18 03:48:32;;;;;;;7.75;1.83;;;;;;;4.22;100.00;103260.69;5093042;28;20185;-42
2022/01/18 03:50:59;;;;;;;10.52;2.10;;;;;;;4.23;100.00;103255.44;5092658;28;20251;-42
2022/01/18 03:53:24;;;;;;;11.25;2.30;;;;;;;4.27;100.00;103259.09;5092989;28;20216;-44
2022/01/18 03:55:51;;;;;;;9.20;1.77;;;;;;;4.27;100.00;103273.25;5092526;28;20273;-43
2022/01/18 03:58:17;;;;;;;7.82;1.90;;;;;;;4.30;100.00;103262.69;5092712;28;20185;-42
2022/01/18 04:00:42;;;;;;;6.80;1.90;;;;;;;4.30;100.00;103264.47;5091237;28;20166;-45
2022/01/18 04:03:08;;;;;;;8.93;2.38;;;;;;;4.34;100.00;103263.69;5092002;28;20170;-45
2022/01/18 04:05:33;;;;;;;7.00;1.77;;;;;;;4.34;99.93;103271.66;5092025;28;20558;-41
2022/01/18 04:07:59;;;;;;;7.88;1.75;;;;;;;4.34;100.00;103277.84;5092257;28;20403;-44
2022/01/18 04:10:24;;;;;;;8.23;1.77;;;;;;;4.36;100.00;103279.66;5092121;28;20162;-41
2022/01/18 04:12:50;;;;;;;8.38;1.45;;;;;;;4.39;99.93;103296.53;5090607;28;20206;-45
2022/01/18 04:15:17;;;;;;;7.82;1.83;;;;;;;4.37;99.92;103284.09;5092411;28;20186;-41
2022/01/18 04:25:56;;;;;;;9.65;1.92;;;;;;;4.29;100.00;103300.72;5091738;28;20198;-44
2022/01/18 04:28:44;;;;;;;7.45;1.55;;;;;;;4.36;100.00;103292.94;5091979;28;20340;-43
2022/01/18 04:31:10;;;;;;;10.13;1.70;;;;;;;4.33;100.00;103294.66;5092120;28;20240;-41
2022/01/18 04:33:38;;;;;;;11.23;1.85;;;;;;;4.34;100.00;103299.09;5091592;28;20205;-43
2022/01/18 04:36:05;;;;;;;4.65;1.30;;;;;;;4.41;100.00;103294.84;5091349;28;20182;-44
2022/01/18 04:38:31;;;;;;;8.38;1.67;;;;;;;4.38;100.00;103291.22;5091670;28;20512;-46
2022/01/18 04:41:04;;;;;;;10.65;2.33;;;;;;;4.38;100.00;103304.50;5091694;28;20166;-42
2022/01/18 04:49:00;;;;;;;6.95;1.67;;;;;;;4.37;100.00;103303.56;5111913;28;20170;-42
2022/01/18 04:51:26;;;;;;;13.20;1.73;;;;;;;4.38;100.00;103299.19;5111401;28;20283;-45
2022/01/18 04:53:58;;;;;;;10.10;2.08;;;;;;;4.37;100.00;103295.59;5096643;28;20608;-47
2022/01/18 04:59:05;;;;;;;13.60;2.03;;;;;;;4.41;100.00;103299.25;5111426;28;20176;-41
2022/01/18 05:01:31;;;;;;;6.20;1.40;;;;;;;4.39;100.00;103303.63;5110723;28;20158;-43
2022/01/18 05:03:56;;;;;;;8.48;1.90;;;;;;;4.41;100.00;103307.22;5111348;28;20164;-42
2022/01/18 05:06:22;;;;;;;5.25;1.42;;;;;;;4.39;100.00;103308.94;5109646;28;20229;-47
2022/01/18 05:08:48;;;;;;;8.77;1.92;;;;;;;4.35;100.00;103307.94;5111091;28;20247;-41
2022/01/18 05:11:16;;;;;;;11.82;1.90;;;;;;;4.34;100.00;103308.81;5097285;27;20206;-42
2022/01/18 05:14:10;;;;;;;5.75;1.75;;;;;;;4.37;100.00;103303.56;5090810;28;20176;-41
2022/01/18 05:24:14;;;;;;;5.57;1.30;;;;;;;4.35;100.00;103307.94;5058879;28;20697;-46
2022/01/18 05:26:40;;;;;;;7.25;2.08;;;;;;;4.34;100.00;103304.38;5090209;28;20277;-42
2022/01/18 05:29:06;;;;;;;11.85;1.80;;;;;;;4.32;100.00;103299.91;5090703;28;20532;-42
2022/01/18 05:31:31;;;;;;;11.13;2.42;;;;;;;4.31;100.00;103314.94;5090254;28;20189;-43
2022/01/18 05:33:56;;;;;;;10.13;1.90;;;;;;;4.28;100.00;103301.56;5090481;28;20228;-42
2022/01/18 05:36:22;;;;;;;8.38;2.03;;;;;;;4.29;100.00;103300.72;5090235;28;20276;-41
2022/01/18 05:38:48;;;;;;;9.95;1.75;;;;;;;4.31;100.00;103306.97;5090533;28;20169;-43
2022/01/18 05:41:14;;;;;;;7.43;1.33;;;;;;;4.28;100.00;103317.47;5090697;28;20521;-43
2022/01/18 05:43:39;;;;;;;8.77;1.80;;;;;;;4.34;100.00;103320.31;5090206;28;20173;-44
2022/01/18 05:46:05;;;;;;;12.02;2.08;;;;;;;4.33;100.00;103309.69;5090131;28;20198;-41
2022/01/18 05:48:30;;;;;;;14.73;2.17;;;;;;;4.28;100.00;103321.91;5090229;28;20166;-42
2022/01/18 05:50:59;;;;;;;14.23;2.15;;;;;;;4.29;100.00;103308.69;5090458;28;20166;-46
2022/01/18 05:53:29;;;;;;;13.98;1.70;;;;;;;4.26;100.00;103315.66;5090350;28;20170;-43
2022/01/18 05:55:54;;;;;;;8.70;2.05;;;;;;;4.26;100.00;103321.88;5090007;28;20217;-43
2022/01/18 05:58:20;;;;;;;8.70;2.17;;;;;;;4.25;100.00;103319.16;5090285;28;20629;-45
2022/01/18 06:00:52;;;;;;;14.00;2.50;;;;;;;4.24;100.00;103314.69;5089081;28;20417;-43
2022/01/18 06:03:26;;;;;;;17.33;2.45;;;;;;;4.24;100.00;103322.66;5090392;28;20181;-42
2022/01/18 06:08:35;;;;;;;11.60;1.90;;;;;;;4.27;100.00;103317.47;5090379;28;20235;-41
2022/01/18 06:11:00;;;;;;;11.52;2.25;;;;;;;4.24;100.00;103309.41;5090246;28;20642;-43
2022/01/18 06:13:28;;;;;;;8.98;3.03;;;;;;;4.29;100.00;103306.03;5089509;28;20631;-44
2022/01/18 06:15:53;;;;;;;10.60;3.03;;;;;;;4.32;100.00;103306.09;5089280;28;20198;-43
2022/01/18 06:18:19;;;;;;;12.90;3.08;;;;;;;4.26;100.00;103315.66;5090065;28;20251;-44
2022/01/18 06:20:44;;;;;;;14.52;2.75;;;;;;;4.29;100.00;103316.63;5088859;28;20192;-44
2022/01/18 06:23:10;;;;;;;12.52;2.83;;;;;;;4.25;100.00;103317.41;5089877;28;20174;-45
2022/01/18 06:25:36;;;;;;;17.48;3.00;;;;;;;4.24;100.00;103320.00;5088950;28;20228;-43
2022/01/18 06:28:01;;;;;;;17.10;3.50;;;;;;;4.24;100.00;103317.34;5089478;28;20653;-43
2022/01/18 06:30:26;;;;;;;10.98;2.33;;;;;;;4.33;100.00;103314.97;5089394;28;20581;-43
2022/01/18 06:32:52;;;;;;;12.60;3.65;;;;;;;4.27;100.00;103320.13;5089790;28;20565;-43
2022/01/18 06:35:17;;;;;;;13.82;3.08;;;;;;;4.31;100.00;103314.94;5089896;28;20173;-43
2022/01/18 06:37:43;;;;;;;15.60;3.67;;;;;;;4.26;100.00;103313.00;5090011;28;20662;-42
2022/01/18 06:40:10;;;;;;;13.88;3.20;;;;;;;4.28;100.00;103314.81;5089863;28;20338;-43
2022/01/18 06:42:36;;;;;;;12.02;2.83;;;;;;;4.31;100.00;103314.94;5090113;28;20177;-45
2022/01/18 06:45:02;;;;;;;9.45;3.03;;;;;;;4.30;100.00;103320.19;5089493;28;20177;-42
2022/01/18 06:47:27;;;;;;;12.82;2.95;;;;;;;4.34;100.00;103315.00;5089628;28;20356;-44
2022/01/18 06:49:53;;;;;;;17.65;3.60;;;;;;;4.36;100.00;103322.13;5089456;28;20261;-42
2022/01/18 06:52:18;;;;;;;13.48;3.05;;;;;;;4.36;100.00;103316.81;5089727;28;20196;-44
2022/01/18 06:54:44;;;;;;;13.00;3.00;;;;;;;4.35;100.00;103321.19;5089628;28;20676;-44
2022/01/18 06:57:10;;;;;;;15.30;3.53;;;;;;;4.35;100.00;103326.50;5089162;28;20666;-44
2022/01/18 06:59:35;;;;;;;13.70;3.60;;;;;;;4.33;100.00;103328.25;5089650;28;20268;-44
2022/01/18 07:02:01;;;;;;;13.18;3.13;;;;;;;4.39;100.00;103328.41;5089363;28;20634;-43
2022/01/18 07:04:27;;;;;;;15.35;3.42;;;;;;;4.34;100.00;103330.94;5089345;28;20170;-44
2022/01/18 07:06:53;;;;;;;12.98;3.38;;;;;;;4.36;100.00;103328.31;5087731;28;20212;-45
2022/01/18 07:09:23;;;;;;;19.52;3.80;;;;;;;4.33;100.00;103334.44;5089671;28;20711;-43
2022/01/18 07:11:50;;;;;;;15.93;4.13;;;;;;;4.36;100.00;103333.63;5094651;28;20696;-45
2022/01/18 07:14:15;;;;;;;9.98;4.07;;;;;;;4.40;100.00;103326.66;5108798;28;20239;-44
2022/01/18 07:16:40;;;;;;;11.80;3.78;;;;;;;4.41;100.00;103333.75;5109214;28;20213;-43
2022/01/18 07:19:06;;;;;;;14.68;4.63;;;;;;;4.42;100.00;103336.47;5107805;28;20218;-43
2022/01/18 07:21:31;;;;;;;18.58;4.85;;;;;;;4.42;100.00;103328.50;5109110;28;20246;-43
2022/01/18 07:24:05;;;;;;;17.23;3.92;;;;;;;4.42;100.00;103336.47;5108885;28;20161;-43
2022/01/18 07:26:32;;;;;;;16.27;4.20;;;;;;;4.45;100.00;103336.53;5108618;28;20201;-43
2022/01/18 07:28:57;;;;;;;17.35;3.47;;;;;;;4.48;100.00;103341.94;5108759;28;20589;-45
2022/01/18 07:31:23;;;;;;;17.50;3.97;;;;;;;4.44;100.00;103340.06;5108050;28;20202;-44
2022/01/18 07:33:48;;;;;;;13.02;3.88;;;;;;;4.49;100.00;103348.16;5108743;28;20219;-43
2022/01/18 07:36:13;;;;;;;17.27;3.65;;;;;;;4.49;100.00;103354.34;5108025;28;20230;-42
2022/01/18 07:38:39;;;;;;;16.35;4.05;;;;;;;4.50;100.00;103353.50;5112066;28;20268;-44
2022/01/18 07:41:04;;;;;;;20.42;3.58;;;;;;;4.52;100.00;103358.84;5111766;28;20289;-45
2022/01/18 07:43:30;;;;;;;21.80;4.80;;;;;;;4.54;100.00;103360.66;5112025;28;20264;-44
2022/01/18 07:45:56;;;;;;;20.70;4.28;;;;;;;4.57;100.00;103358.97;5111834;28;20738;-42
2022/01/18 07:48:23;;;;;;;21.20;3.83;;;;;;;4.60;100.00;103364.38;5111678;28;20227;-44
2022/01/18 07:50:49;;;;;;;27.50;13.25;;;;;;;4.64;100.00;103371.56;5111287;28;20172;-44
2022/01/18 07:53:14;;;;;;;40.40;27.52;;;;;;;4.64;100.00;103361.84;5111285;28;20170;-44
2022/01/18 07:55:39;;;;;;;42.97;29.50;;;;;;;4.68;100.00;103368.13;5110989;28;20291;-42
2022/01/18 07:58:05;;;;;;;35.53;23.00;;;;;;;4.69;100.00;103364.63;5111923;27;20604;-45
2022/01/18 08:00:31;;;;;;;31.38;18.98;;;;;;;4.72;100.00;103364.69;5111350;28;20169;-42
2022/01/18 08:02:56;;;;;;;29.55;16.70;;;;;;;4.71;100.00;103355.81;5111912;28;20174;-44
2022/01/18 08:05:22;;;;;;;27.13;13.05;;;;;;;4.72;100.00;103367.34;5111804;28;20628;-42
2022/01/18 08:07:47;;;;;;;16.77;9.45;;;;;;;4.77;100.00;103368.38;5111268;28;20173;-44
2022/01/18 08:10:16;;;;;;;19.17;7.43;;;;;;;4.75;100.00;103360.38;5110696;28;20169;-45
2022/01/18 08:12:41;;;;;;;19.25;5.47;;;;;;;4.70;100.00;103351.41;5111197;28;20200;-44
2022/01/18 08:15:16;;;;;;;18.40;4.45;;;;;;;4.72;100.00;103368.28;5111411;28;20184;-43
2022/01/18 08:17:44;;;;;;;20.48;4.13;;;;;;;4.73;100.00;103363.84;5110217;28;20546;-44
2022/01/18 08:20:13;;;;;;;27.73;3.83;;;;;;;4.77;100.00;103372.78;5110354;28;20189;-45
2022/01/18 08:22:40;;;;;;;21.55;4.93;;;;;;;4.79;100.00;103374.63;5111096;28;20157;-44
2022/01/18 08:25:06;;;;;;;14.93;3.47;;;;;;;4.85;100.00;103381.84;5111082;28;20177;-44
2022/01/18 08:27:31;;;;;;;24.30;3.95;;;;;;;4.83;100.00;103381.84;5110895;28;20177;-42
2022/01/18 08:29:56;;;;;;;17.92;3.08;;;;;;;4.86;100.00;103383.66;5111335;28;20717;-42
2022/01/18 08:32:23;;;;;;;19.52;3.67;;;;;;;4.91;100.00;103401.50;5109098;28;20197;-44
2022/01/18 08:34:48;;;;;;;19.38;3.38;;;;;;;4.94;100.00;103408.66;5111489;28;20189;-44
2022/01/18 08:37:14;;;;;;;17.73;3.20;;;;;;;4.91;100.00;103412.13;5110779;28;20205;-42
2022/01/18 08:39:39;;;;;;;16.83;2.92;;;;;;;4.98;100.00;103415.84;5110902;28;20169;-43
2022/01/18 08:42:05;;;;;;;15.07;3.33;;;;;;;4.96;100.00;103409.59;5111429;28;20178;-42
2022/01/18 08:44:31;;;;;;;20.85;3.38;;;;;;;4.98;100.00;103413.19;5109647;28;20217;-44
2022/01/18 08:46:56;;;;;;;20.25;3.03;;;;;;;4.98;100.00;103410.53;5111081;28;20194;-44
2022/01/18 08:49:22;;;;;;;19.00;3.53;;;;;;;5.00;100.00;103395.53;5110740;28;20157;-43
2022/01/18 08:51:47;;;;;;;11.82;3.05;;;;;;;5.04;100.00;103407.16;5109259;28;20193;-44
2022/01/18 08:54:12;;;;;;;16.23;3.58;;;;;;;5.02;100.00;103399.13;5111961;28;20218;-42
2022/01/18 08:56:38;;;;;;;23.42;4.15;;;;;;;5.04;100.00;103400.09;5108515;28;20488;-44
2022/01/18 08:59:03;;;;;;;22.70;3.75;;;;;;;5.03;100.00;103413.31;5111644;28;20423;-45
2022/01/18 09:01:28;;;;;;;15.45;3.83;;;;;;;5.05;100.00;103416.91;5111670;28;20547;-42
2022/01/18 09:03:54;;;;;;;15.50;3.55;;;;;;;5.14;100.00;103426.03;5111061;28;20188;-44
2022/01/18 09:06:22;;;;;;;22.10;4.13;;;;;;;5.16;100.00;103421.66;5110974;28;20262;-44
2022/01/18 09:08:55;;;;;;;21.88;4.25;;;;;;;5.16;100.00;103413.69;5111085;28;20179;-44
2022/01/18 09:11:23;;;;;;;29.70;4.88;;;;;;;5.18;100.00;103423.44;5095922;28;20202;-43
2022/01/18 09:13:49;;;;;;;25.75;4.32;;;;;;;5.29;100.00;103424.63;5091162;28;20188;-42
2022/01/18 09:16:14;;;;;;;21.42;4.57;;;;;;;5.19;100.00;103420.84;5090215;28;20201;-42
2022/01/18 09:18:40;;;;;;;18.52;3.67;;;;;;;5.33;100.00;103422.06;5090692;28;20188;-44
2022/01/18 09:21:05;;;;;;;19.50;4.20;;;;;;;5.32;100.00;103430.03;5090488;28;20529;-42
2022/01/18 09:23:31;;;;;;;12.80;3.03;;;;;;;5.22;100.00;103430.66;5091103;28;20243;-44
2022/01/18 09:25:57;;;;;;;16.48;3.70;;;;;;;5.24;100.00;103426.28;5090372;28;20182;-43
2022/01/18 09:28:23;;;;;;;13.65;3.70;;;;;;;5.24;100.00;103424.50;5090598;28;20205;-43
2022/01/18 09:30:48;;;;;;;19.48;3.58;;;;;;;5.28;100.00;103430.81;5090765;28;20591;-43
2022/01/18 09:33:13;;;;;;;13.95;3.47;;;;;;;5.29;100.00;103427.28;5090064;28;20316;-42
2022/01/18 09:35:39;;;;;;;18.00;3.63;;;;;;;5.33;100.00;103430.06;5100436;28;20205;-44
2022/01/18 09:38:05;;;;;;;17.60;3.42;;;;;;;5.37;100.00;103429.28;5110753;28;20229;-43
2022/01/18 09:40:33;;;;;;;20.92;3.97;;;;;;;5.34;100.00;103430.97;5109289;28;20161;-43
2022/01/18 09:43:01;;;;;;;19.70;3.35;;;;;;;5.34;100.00;103436.28;5111159;28;20184;-41
2022/01/18 09:45:28;;;;;;;13.88;3.08;;;;;;;5.33;100.00;103435.38;5110051;28;20323;-42
2022/01/18 09:47:56;;;;;;;13.18;2.88;;;;;;;5.43;100.00;103443.59;5110643;28;20548;-43
2022/01/18 09:50:31;;;;;;;16.75;3.33;;;;;;;5.38;100.00;103443.50;5111379;28;20186;-42
2022/01/18 09:52:58;;;;;;;17.02;3.17;;;;;;;5.39;100.00;103450.59;5109337;28;20212;-42
2022/01/18 09:55:27;;;;;;;20.38;3.85;;;;;;;5.40;100.00;103459.47;5110451;28;20185;-43
2022/01/18 09:57:54;;;;;;;20.33;3.25;;;;;;;5.42;100.00;103449.75;5109150;28;20266;-44
2022/01/18 10:00:21;;;;;;;16.88;2.97;;;;;;;5.42;100.00;103455.06;5109693;28;20543;-43
2022/01/18 10:02:47;;;;;;;23.08;3.85;;;;;;;5.42;100.00;103473.69;5110297;28;20184;-41
2022/01/18 10:05:25;;;;;;;15.50;2.80;;;;;;;5.46;100.00;103460.50;5110438;28;20195;-44
2022/01/18 10:08:07;;;;;;;11.82;2.90;;;;;;;5.44;100.00;103470.19;5109991;28;20315;-41
2022/01/18 10:10:46;;;;;;;12.02;2.50;;;;;;;5.51;100.00;103469.53;5100814;28;20185;-43
2022/01/18 10:13:18;;;;;;;15.55;2.53;;;;;;;5.56;100.00;103469.63;5089711;28;20789;-42
2022/01/18 10:15:57;;;;;;;14.15;2.40;;;;;;;5.48;100.00;103472.09;5089969;28;20216;-42
2022/01/18 10:18:35;;;;;;;14.13;3.22;;;;;;;5.55;100.00;103476.72;5090038;28;20165;-44
2022/01/18 10:21:01;;;;;;;12.70;2.67;;;;;;;5.58;100.00;103475.91;5089874;28;20676;-43
2022/01/18 10:23:27;;;;;;;17.50;3.35;;;;;;;5.49;100.00;103478.34;5089858;28;20244;-44
2022/01/18 10:25:53;;;;;;;16.77;2.97;;;;;;;5.52;100.00;103473.06;5089252;28;20186;-43
2022/01/18 10:28:33;;;;;;;16.25;2.83;;;;;;;5.49;100.00;103475.66;5088695;28;20178;-42
2022/01/18 10:31:04;;;;;;;13.18;2.90;;;;;;;5.52;100.00;103481.06;5089545;28;20651;-42
2022/01/18 10:33:36;;;;;;;12.38;2.78;;;;;;;5.52;100.00;103473.97;5090019;28;20205;-44
2022/01/18 10:36:11;;;;;;;13.88;2.72;;;;;;;5.55;100.00;103470.47;5088847;28;20230;-42
2022/01/18 10:38:39;;;;;;;14.75;3.00;;;;;;;5.63;100.00;103479.56;5089948;28;20174;-44
2022/01/18 10:41:30;;;;;;;14.95;3.40;;;;;;;5.53;100.00;103477.50;5089711;28;20166;-43
2022/01/18 10:44:05;;;;;;;12.38;2.95;;;;;;;5.51;100.00;103471.25;5089788;28;20525;-42
2022/01/18 10:46:52;;;;;;;12.63;2.47;;;;;;;5.50;100.00;103472.13;5089368;28;20185;-42
2022/01/18 10:49:40;;;;;;;13.02;2.85;;;;;;;5.50;100.00;103466.81;5089632;28;20324;-42
2022/01/18 10:52:07;;;;;;;10.75;2.78;;;;;;;5.45;100.00;103455.19;5089827;28;20186;-44
2022/01/18 10:54:48;;;;;;;11.77;2.22;;;;;;;5.44;100.00;103458.69;5089497;28;20186;-42
2022/01/18 10:57:21;;;;;;;12.65;2.53;;;;;;;5.35;100.00;103454.03;5089341;28;20201;-44
2022/01/18 10:59:48;;;;;;;11.63;2.80;;;;;;;5.43;100.00;103457.78;5089483;28;20185;-42
2022/01/18 11:02:19;;;;;;;11.40;2.50;;;;;;;5.39;100.00;103447.94;5089664;28;20631;-42
2022/01/18 11:04:51;;;;;;;15.35;2.78;;;;;;;5.41;100.00;103455.97;5089413;28;20178;-43
2022/01/18 11:07:27;;;;;;;13.60;2.40;;;;;;;5.44;100.00;103443.63;5089160;28;20202;-43
2022/01/18 11:10:03;;;;;;;10.73;2.30;;;;;;;5.30;100.00;103447.69;5089572;28;20201;-43
2022/01/18 11:12:30;;;;;;;9.90;1.80;;;;;;;5.41;100.00;103438.25;5092835;28;20254;-43
2022/01/18 11:15:05;;;;;;;7.47;2.05;;;;;;;5.40;100.00;103435.53;5092755;28;20217;-42
2022/01/18 11:17:39;;;;;;;7.65;2.25;;;;;;;5.34;100.00;103438.94;5092734;28;20203;-43
2022/01/18 11:20:06;;;;;;;9.25;2.20;;;;;;;5.40;100.00;103444.44;5093222;28;20248;-41
2022/01/18 11:22:32;;;;;;;11.98;2.15;;;;;;;5.36;100.00;103443.44;5093249;28;20235;-42
2022/01/18 11:24:59;;;;;;;9.23;1.70;;;;;;;5.46;100.00;103443.66;5093383;28;20166;-42
2022/01/18 11:27:28;;;;;;;8.70;2.20;;;;;;;5.54;100.00;103431.47;5091630;28;20190;-42
2022/01/18 11:29:53;;;;;;;7.95;1.80;;;;;;;5.46;100.00;103435.69;5093309;28;20182;-43
2022/01/18 11:32:20;;;;;;;7.57;1.75;;;;;;;5.50;100.00;103426.94;5093464;28;20209;-42
2022/01/18 11:35:08;;;;;;;7.75;2.00;;;;;;;5.48;100.00;103426.88;5092716;28;20186;-43
2022/01/18 11:37:57;;;;;;;7.57;1.83;;;;;;;5.44;100.00;103422.34;5092558;28;20179;-43
2022/01/18 11:40:24;;;;;;;5.47;1.75;;;;;;;5.45;100.00;103433.91;5092646;28;20240;-43
2022/01/18 11:42:55;;;;;;;9.68;1.90;;;;;;;5.54;100.00;103423.50;5092577;28;20162;-43
2022/01/18 11:45:34;;;;;;;7.47;1.40;;;;;;;5.52;100.00;103427.88;5092384;28;20277;-42
2022/01/18 11:48:20;;;;;;;5.43;1.13;;;;;;;5.50;100.00;103427.81;5092710;28;20181;-44
2022/01/18 11:50:47;;;;;;;4.95;1.10;;;;;;;5.50;100.00;103441.13;5091940;28;20661;-42
2022/01/18 11:53:23;;;;;;;5.45;1.05;;;;;;;5.58;100.00;103441.31;5092593;28;20182;-44
2022/01/18 11:55:53;;;;;;;5.65;1.30;;;;;;;5.56;100.00;103433.31;5092371;28;20696;-42
2022/01/18 11:58:19;;;;;;;4.53;0.98;;;;;;;5.49;100.00;103427.81;5092695;28;20185;-43
2022/01/18 12:00:50;;;;;;;3.25;0.70;;;;;;;5.57;100.00;103444.81;5092116;28;20163;-44
2022/01/18 12:03:22;;;;;;;1.88;0.65;;;;;;;5.54;100.00;103437.69;5092529;28;20162;-42
2022/01/18 12:05:48;;;;;;;3.55;0.80;;;;;;;5.55;100.00;103451.88;5092005;28;20190;-42
2022/01/18 12:08:46;;;;;;;0.65;0.47;;;;;;;5.47;100.00;103437.50;5091918;28;20189;-42
2022/01/18 12:11:36;;;;;;;1.70;0.40;;;;;;;5.51;100.00;103439.34;5092167;28;20170;-42
2022/01/18 12:14:04;;;;;;;1.38;0.52;;;;;;;5.55;100.00;103431.53;5092153;28;20259;-42
2022/01/18 12:16:30;;;;;;;2.83;0.70;;;;;;;5.54;100.00;103431.47;5092125;28;20190;-43
2022/01/18 12:19:02;;;;;;;4.70;1.23;;;;;;;5.53;100.00;103437.63;5094950;28;20170;-40
2022/01/18 12:21:30;;;;;;;4.57;1.00;;;;;;;5.67;100.00;103443.31;5092543;28;20634;-41
2022/01/18 12:24:11;;;;;;;2.78;1.25;;;;;;;5.54;100.00;103437.69;5091614;28;20177;-44
2022/01/18 12:26:42;;;;;;;1.73;1.02;;;;;;;5.54;100.00;103436.78;5091578;28;20545;-40
2022/01/18 12:34:43;;;;;;;7.43;1.70;;;;;;;5.54;100.00;103435.00;5091479;28;20193;-43
2022/01/18 12:37:08;;;;;;;1.67;1.10;;;;;;;5.60;100.00;103423.66;5090570;28;20601;-40
2022/01/18 12:45:05;;;;;;;1.48;0.60;;;;;;;5.56;100.00;103421.78;5091452;28;20163;-42
2022/01/18 12:47:36;;;;;;;1.45;0.63;;;;;;;5.54;100.00;103421.72;5090911;28;20170;-42
2022/01/18 12:50:06;;;;;;;3.22;0.57;;;;;;;5.61;100.00;103420.09;5089234;28;20169;-42
2022/01/18 12:53:01;;;;;;;2.20;0.80;;;;;;;5.59;100.00;103427.16;5091350;28;20464;-41